createdAt,value
2023-03-11T00:00:28.393Z,1.55
2023-03-11T00:02:57.329Z,2.15
2023-03-11T00:05:30.404Z,3.78
2023-03-11T00:07:57.074Z,3.47
2023-03-11T00:10:29.914Z,3.65
2023-03-11T00:12:57.024Z,0.88
2023-03-11T00:15:23.522Z,1.17
2023-03-11T00:17:50.870Z,1.38
2023-03-11T00:20:38.995Z,1.25
2023-03-11T00:23:07.731Z,0.75
2023-03-11T00:25:36.482Z,3.20
2023-03-11T00:28:03.675Z,0.70
2023-03-11T00:30:30.615Z,1.85
2023-03-11T00:32:58.264Z,2.78
2023-03-11T00:35:28.080Z,0.82
2023-03-11T00:37:57.423Z,1.40
2023-03-11T00:40:26.248Z,1.75
2023-03-11T00:42:53.281Z,0.90
2023-03-11T00:45:20.495Z,1.27
2023-03-11T00:47:47.063Z,1.58
2023-03-11T00:50:20.204Z,1.58
2023-03-11T00:52:48.644Z,0.80
2023-03-11T00:55:18.723Z,1.70
2023-03-11T00:57:46.236Z,1.20
2023-03-11T01:00:19.731Z,0.90
2023-03-11T01:02:46.231Z,0.80
2023-03-11T01:05:13.824Z,0.88
2023-03-11T01:07:40.238Z,0.98
2023-03-11T01:10:09.091Z,0.80
2023-03-11T01:12:35.565Z,0.60
2023-03-11T01:15:03.115Z,0.50
2023-03-11T01:17:29.554Z,2.05
2023-03-11T01:19:55.949Z,0.63
2023-03-11T01:22:22.609Z,0.80
2023-03-11T01:24:48.991Z,0.60
2023-03-11T01:27:15.424Z,0.82
2023-03-11T01:29:41.851Z,0.55
2023-03-11T01:32:08.239Z,2.10
2023-03-11T01:34:36.103Z,1.95
2023-03-11T01:37:03.779Z,1.17
2023-03-11T01:39:30.502Z,2.28
2023-03-11T01:41:57.133Z,2.28
2023-03-11T01:44:23.573Z,1.02
2023-03-11T01:46:53.070Z,0.40
2023-03-11T01:49:23.116Z,0.50
2023-03-11T01:51:52.988Z,1.88
2023-03-11T01:54:27.029Z,1.75
2023-03-11T01:56:54.595Z,0.55
2023-03-11T01:59:30.755Z,1.85
2023-03-11T02:02:35.119Z,1.48
2023-03-11T02:05:02.824Z,1.00
2023-03-11T02:07:29.506Z,1.83
2023-03-11T02:09:55.985Z,0.65
2023-03-11T02:12:22.589Z,1.80
2023-03-11T02:14:51.705Z,1.67
2023-03-11T02:17:18.295Z,1.05
2023-03-11T02:19:58.962Z,0.80
2023-03-11T02:22:26.510Z,1.47
2023-03-11T02:25:16.579Z,0.40
2023-03-11T02:27:45.455Z,1.90
2023-03-11T02:30:13.668Z,1.00
2023-03-11T02:32:41.719Z,0.43
2023-03-11T02:35:08.529Z,0.85
2023-03-11T02:37:34.976Z,1.65
2023-03-11T02:40:23.398Z,0.65
2023-03-11T02:43:24.286Z,1.70
2023-03-11T02:45:50.944Z,1.92
2023-03-11T02:48:18.823Z,1.85
2023-03-11T02:50:46.705Z,2.30
2023-03-11T02:53:14.121Z,2.58
2023-03-11T02:55:40.649Z,0.65
2023-03-11T02:58:07.433Z,2.40
2023-03-11T03:00:34.518Z,0.95
2023-03-11T03:03:00.983Z,0.68
2023-03-11T03:05:28.039Z,1.67
2023-03-11T03:07:54.650Z,1.77
2023-03-11T03:10:22.274Z,0.55
2023-03-11T03:12:48.953Z,1.15
2023-03-11T03:15:16.078Z,2.33
2023-03-11T03:17:42.573Z,2.13
2023-03-11T03:20:11.946Z,1.08
2023-03-11T03:22:39.244Z,1.88
2023-03-11T03:25:06.467Z,3.33
2023-03-11T03:27:34.311Z,1.13
2023-03-11T03:30:00.756Z,1.65
2023-03-11T03:32:27.284Z,1.70
2023-03-11T03:34:58.941Z,1.08
2023-03-11T03:37:27.344Z,2.05
2023-03-11T03:39:54.913Z,0.63
2023-03-11T03:42:21.989Z,1.60
2023-03-11T03:44:48.420Z,1.45
2023-03-11T03:47:14.837Z,1.38
2023-03-11T03:49:41.340Z,2.15
2023-03-11T03:52:08.616Z,2.03
2023-03-11T03:54:35.039Z,5.20
2023-03-11T03:57:02.026Z,1.15
2023-03-11T03:59:28.648Z,2.47
2023-03-11T04:01:55.114Z,1.20
2023-03-11T04:04:21.639Z,1.92
2023-03-11T04:06:48.495Z,2.35
2023-03-11T04:09:15.092Z,1.02
2023-03-11T04:11:41.531Z,3.90
2023-03-11T04:14:07.939Z,1.42
2023-03-11T04:16:34.381Z,1.25
2023-03-11T04:19:00.824Z,1.15
2023-03-11T04:21:27.231Z,0.88
2023-03-11T04:23:53.643Z,2.45
2023-03-11T04:26:20.074Z,4.13
2023-03-11T04:28:46.501Z,0.80
2023-03-11T04:31:12.937Z,0.55
2023-03-11T04:33:39.406Z,2.10
2023-03-11T04:36:07.561Z,1.48
2023-03-11T04:38:35.528Z,5.45
2023-03-11T04:41:03.238Z,6.38
2023-03-11T04:43:30.277Z,0.73
2023-03-11T04:45:56.711Z,3.15
2023-03-11T04:48:24.677Z,3.67
2023-03-11T04:50:51.713Z,0.60
2023-03-11T04:53:18.167Z,2.70
2023-03-11T04:55:44.809Z,1.40
2023-03-11T04:58:11.222Z,0.90
2023-03-11T05:00:37.626Z,0.77
2023-03-11T05:03:04.206Z,1.08
2023-03-11T05:05:30.655Z,2.58
2023-03-11T05:07:57.040Z,3.58
2023-03-11T05:10:23.522Z,2.35
2023-03-11T05:12:50.327Z,1.65
2023-03-11T05:15:17.281Z,1.77
2023-03-11T05:17:43.799Z,3.45
2023-03-11T05:20:11.122Z,1.05
2023-03-11T05:22:38.229Z,1.83
2023-03-11T05:25:05.863Z,2.53
2023-03-11T05:27:32.902Z,2.15
2023-03-11T05:29:59.354Z,1.58
2023-03-11T05:32:25.927Z,0.70
2023-03-11T05:34:52.570Z,0.70
2023-03-11T05:37:19.095Z,1.75
2023-03-11T05:39:45.545Z,2.25
2023-03-11T05:42:11.961Z,1.40
2023-03-11T05:44:38.539Z,0.68
2023-03-11T05:47:05.120Z,5.53
2023-03-11T05:49:31.644Z,2.75
2023-03-11T05:51:58.853Z,1.88
2023-03-11T05:54:25.538Z,1.25
2023-03-11T05:56:52.072Z,1.05
2023-03-11T05:59:18.603Z,4.28
2023-03-11T06:01:45.308Z,0.80
2023-03-11T06:04:12.164Z,1.65
2023-03-11T06:06:42.848Z,2.33
2023-03-11T06:09:14.312Z,0.83
2023-03-11T06:11:41.382Z,0.68
2023-03-11T06:14:11.215Z,3.35
2023-03-11T06:16:37.735Z,2.08
2023-03-11T06:19:04.281Z,0.52
2023-03-11T06:21:30.777Z,0.75
2023-03-11T06:23:57.199Z,1.10
2023-03-11T06:26:24.540Z,1.77
2023-03-11T06:28:52.210Z,1.30
2023-03-11T06:31:28.246Z,0.52
2023-03-11T06:33:58.729Z,2.45
2023-03-11T06:36:25.162Z,0.50
2023-03-11T06:38:53.174Z,0.95
2023-03-11T06:41:19.923Z,0.75
2023-03-11T06:43:46.342Z,1.50
2023-03-11T06:46:18.228Z,0.95
2023-03-11T06:48:46.279Z,1.65
2023-03-11T06:51:13.468Z,0.68
2023-03-11T06:53:40.568Z,4.43
2023-03-11T06:56:12.201Z,0.95
2023-03-11T06:58:41.052Z,4.53
2023-03-11T07:01:13.076Z,1.50
2023-03-11T07:03:39.665Z,0.82
2023-03-11T07:06:07.156Z,3.45
2023-03-11T07:08:33.588Z,2.53
2023-03-11T07:11:08.640Z,0.65
2023-03-11T07:13:36.222Z,1.58
2023-03-11T07:16:13.032Z,2.72
2023-03-11T07:18:39.617Z,3.80
2023-03-11T07:21:08.101Z,1.92
2023-03-11T07:23:35.688Z,1.15
2023-03-11T07:26:02.209Z,3.55
2023-03-11T07:28:29.576Z,0.88
2023-03-11T07:30:56.213Z,12.27
2023-03-11T07:33:24.452Z,2.70
2023-03-11T07:35:51.726Z,1.10
2023-03-11T07:38:19.779Z,3.70
2023-03-11T07:40:46.426Z,2.88
2023-03-11T07:43:12.917Z,2.15
2023-03-11T07:45:39.388Z,2.55
2023-03-11T07:48:06.059Z,3.42
2023-03-11T07:50:32.556Z,3.42
2023-03-11T07:52:58.937Z,0.98
2023-03-11T07:55:25.486Z,1.63
2023-03-11T07:57:52.070Z,3.33
2023-03-11T08:00:19.284Z,1.63
2023-03-11T08:02:45.963Z,4.97
2023-03-11T08:05:12.653Z,2.38
2023-03-11T08:07:39.358Z,2.08
2023-03-11T08:10:06.675Z,1.38
2023-03-11T08:12:33.329Z,3.60
2023-03-11T08:14:59.757Z,1.90
2023-03-11T08:17:26.169Z,4.03
2023-03-11T08:19:52.719Z,1.33
2023-03-11T08:22:19.147Z,0.82
2023-03-11T08:24:45.562Z,1.08
2023-03-11T08:27:12.291Z,9.68
2023-03-11T08:29:38.726Z,3.17
2023-03-11T08:32:05.486Z,4.43
2023-03-11T08:34:32.878Z,1.13
2023-03-11T08:36:59.524Z,2.28
2023-03-11T08:39:25.957Z,3.90
2023-03-11T08:41:52.354Z,1.10
2023-03-11T08:44:18.784Z,5.65
2023-03-11T08:46:45.452Z,1.85
2023-03-11T08:49:11.910Z,1.77
2023-03-11T08:51:38.472Z,1.30
2023-03-11T08:54:05.592Z,2.17
2023-03-11T08:56:32.069Z,0.82
2023-03-11T08:58:58.616Z,0.82
2023-03-11T09:01:25.639Z,0.52
2023-03-11T09:03:52.481Z,1.85
2023-03-11T09:06:19.080Z,0.73
2023-03-11T09:08:46.307Z,0.52
2023-03-11T09:11:14.755Z,4.43
2023-03-11T09:13:42.277Z,0.80
2023-03-11T09:16:14.196Z,1.00
2023-03-11T09:18:40.778Z,2.88
2023-03-11T09:21:07.785Z,2.05
2023-03-11T09:23:34.493Z,1.75
2023-03-11T09:26:01.005Z,2.53
2023-03-11T09:28:27.622Z,2.70
2023-03-11T09:30:54.093Z,2.45
2023-03-11T09:33:20.715Z,0.80
2023-03-11T09:35:47.229Z,1.90
2023-03-11T09:38:14.015Z,3.30
2023-03-11T09:40:57.893Z,1.75
2023-03-11T09:43:45.768Z,2.20
2023-03-11T09:46:30.923Z,1.27
2023-03-11T09:49:06.309Z,2.50
2023-03-11T09:51:58.006Z,3.00
2023-03-11T09:54:24.831Z,2.75
2023-03-11T09:56:51.881Z,1.33
2023-03-11T09:59:31.479Z,3.17
2023-03-11T10:02:00.015Z,0.45
2023-03-11T10:04:41.025Z,0.93
2023-03-11T10:07:21.591Z,1.98
2023-03-11T10:09:52.364Z,1.77
2023-03-11T10:12:33.737Z,2.15
2023-03-11T10:15:18.937Z,4.13
2023-03-11T10:18:04.685Z,2.42
2023-03-11T10:20:41.841Z,5.07
2023-03-11T10:23:22.301Z,1.70
2023-03-11T10:25:54.786Z,4.45
2023-03-11T10:28:28.706Z,2.10
2023-03-11T10:31:05.430Z,0.47
2023-03-11T10:33:46.575Z,1.35
2023-03-11T10:36:23.858Z,3.83
2023-03-11T10:38:52.795Z,1.27
2023-03-11T10:41:26.877Z,0.85
2023-03-11T10:44:05.210Z,1.60
2023-03-11T10:46:31.774Z,1.15
2023-03-11T10:48:58.363Z,0.95
2023-03-11T10:51:31.732Z,0.85
2023-03-11T10:54:00.202Z,3.47
2023-03-11T10:56:40.225Z,3.15
2023-03-11T10:59:29.909Z,1.20
2023-03-11T11:02:21.367Z,1.20
2023-03-11T11:04:50.361Z,2.30
2023-03-11T11:07:39.585Z,1.15
2023-03-11T11:10:12.256Z,0.80
2023-03-11T11:13:16.986Z,0.75
2023-03-11T11:15:58.079Z,0.85
2023-03-11T11:21:03.308Z,3.17
2023-03-11T11:23:43.298Z,1.02
2023-03-11T11:26:22.684Z,2.65
2023-03-11T11:29:14.433Z,2.20
2023-03-11T11:31:46.602Z,2.88
2023-03-11T11:34:33.754Z,1.02
2023-03-11T11:37:05.273Z,1.60
2023-03-11T11:39:57.816Z,1.80
2023-03-11T11:42:27.772Z,0.90
2023-03-11T11:45:05.615Z,2.08
2023-03-11T11:47:37.875Z,2.50
2023-03-11T11:50:13.137Z,2.85
2023-03-11T11:52:49.696Z,3.40
2023-03-11T11:55:30.545Z,0.90
2023-03-11T11:57:57.491Z,0.93
2023-03-11T12:00:35.512Z,0.95
2023-03-11T12:03:16.561Z,0.73
2023-03-11T12:08:35.602Z,1.10
2023-03-11T12:11:08.912Z,4.35
2023-03-11T12:13:55.712Z,2.60
2023-03-11T12:16:47.628Z,2.38
2023-03-11T12:19:26.263Z,2.42
2023-03-11T12:22:18.041Z,1.35
2023-03-11T12:25:02.845Z,1.38
2023-03-11T12:27:44.706Z,1.08
2023-03-11T12:30:17.999Z,1.27
2023-03-11T12:32:57.809Z,2.28
2023-03-11T12:35:30.828Z,0.22
2023-03-11T12:38:20.382Z,1.48
2023-03-11T12:40:59.399Z,3.35
2023-03-11T12:43:33.619Z,1.13
2023-03-11T12:46:02.385Z,3.75
2023-03-11T12:48:46.595Z,1.05
2023-03-11T12:51:33.596Z,1.65
2023-03-11T12:54:34.034Z,5.57
2023-03-11T12:57:20.697Z,2.38
2023-03-11T13:00:17.462Z,1.02
2023-03-11T13:03:18.033Z,4.40
2023-03-11T13:06:06.288Z,0.30
2023-03-11T13:08:57.128Z,3.13
2023-03-11T13:11:32.358Z,0.63
2023-03-11T13:14:27.711Z,1.92
2023-03-11T13:16:54.508Z,0.98
2023-03-11T13:19:27.206Z,3.30
2023-03-11T13:21:57.878Z,2.30
2023-03-11T13:24:26.992Z,1.02
2023-03-11T13:26:59.895Z,0.30
2023-03-11T13:29:52.658Z,0.68
2023-03-11T13:32:31.577Z,3.75
2023-03-11T13:35:09.265Z,1.83
2023-03-11T13:38:09.685Z,2.25
2023-03-11T13:40:44.711Z,2.63
2023-03-11T13:43:16.659Z,4.05
2023-03-11T13:46:01.644Z,1.75
2023-03-11T13:48:44.817Z,1.70
2023-03-11T13:51:20.532Z,1.65
2023-03-11T13:53:55.730Z,1.40
2023-03-11T13:56:28.043Z,0.20
2023-03-11T13:58:54.544Z,1.52
2023-03-11T14:01:21.294Z,1.27
2023-03-11T14:03:48.497Z,0.10
2023-03-11T14:06:19.650Z,1.70
2023-03-11T14:08:57.507Z,0.43
2023-03-11T14:11:29.355Z,1.45
2023-03-11T14:13:55.809Z,0.15
2023-03-11T14:16:33.553Z,0.55
2023-03-11T14:19:12.969Z,0.28
2023-03-11T14:21:51.413Z,0.17
2023-03-11T14:24:25.791Z,1.23
2023-03-11T14:26:57.102Z,2.47
2023-03-11T14:29:37.260Z,1.13
2023-03-11T14:32:28.164Z,0.63
2023-03-11T14:37:32.590Z,3.45
2023-03-11T14:39:59.599Z,2.95
2023-03-11T14:42:41.217Z,0.52
2023-03-11T14:45:18.254Z,0.73
2023-03-11T14:47:50.006Z,0.90
2023-03-11T14:50:22.655Z,0.35
2023-03-11T14:52:53.030Z,0.70
2023-03-11T14:55:29.885Z,0.98
2023-03-11T14:58:00.404Z,1.65
2023-03-11T15:00:36.683Z,1.00
2023-03-11T15:03:17.157Z,0.68
2023-03-11T15:05:56.808Z,0.30
2023-03-11T15:08:28.472Z,0.20
2023-03-11T15:11:12.998Z,3.25
2023-03-11T15:13:42.527Z,1.30
2023-03-11T15:16:26.447Z,4.55
2023-03-11T15:18:54.516Z,1.25
2023-03-11T15:21:23.962Z,1.77
2023-03-11T15:23:56.600Z,0.10
2023-03-11T15:26:25.877Z,0.73
2023-03-11T15:29:00.768Z,1.75
2023-03-11T15:31:39.524Z,0.88
2023-03-11T15:34:17.881Z,0.32
2023-03-11T15:36:55.370Z,0.85
2023-03-11T15:39:44.076Z,2.60
2023-03-11T15:42:22.956Z,1.08
2023-03-11T15:44:58.657Z,0.85
2023-03-11T15:47:25.145Z,0.30
2023-03-11T15:49:51.534Z,1.50
2023-03-11T15:52:20.272Z,1.73
2023-03-11T15:54:55.204Z,2.75
2023-03-11T15:57:28.204Z,1.00
2023-03-11T15:59:58.031Z,0.98
2023-03-11T16:02:27.909Z,0.47
2023-03-11T16:04:55.134Z,4.78
2023-03-11T16:07:36.801Z,0.45
2023-03-11T16:10:07.345Z,0.90
2023-03-11T16:12:33.805Z,1.10
2023-03-11T16:15:00.424Z,3.28
2023-03-11T16:17:31.871Z,1.40
2023-03-11T16:20:06.553Z,3.65
2023-03-11T16:22:36.454Z,3.00
2023-03-11T16:25:03.654Z,0.55
2023-03-11T16:27:30.543Z,2.53
2023-03-11T16:29:57.032Z,1.38
2023-03-11T16:32:23.538Z,1.98
2023-03-11T16:34:50.089Z,3.42
2023-03-11T16:37:20.734Z,1.55
2023-03-11T16:39:48.455Z,1.80
2023-03-11T16:42:23.241Z,2.17
2023-03-11T16:44:50.220Z,5.65
2023-03-11T16:47:16.717Z,1.65
2023-03-11T16:49:43.129Z,1.70
2023-03-11T16:52:09.588Z,3.65
2023-03-11T16:54:36.171Z,1.23
2023-03-11T16:57:03.542Z,4.13
2023-03-11T16:59:30.241Z,5.97
2023-03-11T17:01:56.687Z,1.27
2023-03-11T17:04:23.176Z,1.50
2023-03-11T17:06:49.599Z,4.03
2023-03-11T17:09:16.045Z,1.60
2023-03-11T17:11:42.450Z,2.25
2023-03-11T17:14:16.384Z,5.43
2023-03-11T17:16:45.201Z,2.60
2023-03-11T17:19:11.838Z,5.53
2023-03-11T17:21:38.228Z,2.17
2023-03-11T17:24:04.972Z,4.95
2023-03-11T17:26:31.769Z,3.92
2023-03-11T17:28:58.980Z,9.65
2023-03-11T17:31:25.556Z,5.35
2023-03-11T17:33:52.036Z,4.70
2023-03-11T17:36:18.760Z,5.20
2023-03-11T17:38:46.580Z,2.70
2023-03-11T17:41:15.674Z,2.90
2023-03-11T17:43:43.138Z,2.22
2023-03-11T17:46:12.308Z,2.20
2023-03-11T17:48:38.749Z,0.95
2023-03-11T17:51:10.723Z,5.72
2023-03-11T17:53:42.811Z,2.30
2023-03-11T17:56:13.112Z,4.85
2023-03-11T17:58:39.731Z,6.10
2023-03-11T18:01:08.936Z,0.85
2023-03-11T18:03:35.394Z,9.65
2023-03-11T18:06:04.044Z,3.88
2023-03-11T18:08:31.356Z,2.33
2023-03-11T18:11:03.109Z,3.60
2023-03-11T18:13:30.167Z,5.35
2023-03-11T18:15:58.836Z,2.35
2023-03-11T18:18:25.873Z,3.35
2023-03-11T18:20:52.428Z,1.60
2023-03-11T18:23:18.995Z,6.75
2023-03-11T18:25:51.556Z,2.92
2023-03-11T18:28:18.173Z,4.72
2023-03-11T18:30:44.612Z,1.42
2023-03-11T18:33:11.005Z,2.58
2023-03-11T18:35:37.452Z,2.78
2023-03-11T18:38:03.934Z,1.42
2023-03-11T18:40:30.326Z,4.15
2023-03-11T18:42:56.719Z,3.65
2023-03-11T18:45:23.175Z,1.98
2023-03-11T18:47:49.641Z,2.53
2023-03-11T18:50:16.457Z,4.65
2023-03-11T18:52:42.861Z,3.10
2023-03-11T18:55:09.528Z,6.47
2023-03-11T18:57:35.970Z,2.50
2023-03-11T19:00:02.454Z,5.28
2023-03-11T19:02:29.632Z,3.88
2023-03-11T19:04:56.160Z,5.00
2023-03-11T19:07:22.723Z,1.73
2023-03-11T19:09:49.411Z,3.22
2023-03-11T19:12:15.831Z,2.42
2023-03-11T19:14:42.380Z,6.70
2023-03-11T19:17:08.893Z,5.53
2023-03-11T19:19:35.386Z,2.90
2023-03-11T19:22:01.788Z,6.82
2023-03-11T19:24:28.308Z,5.50
2023-03-11T19:26:54.702Z,3.45
2023-03-11T19:29:23.672Z,3.90
2023-03-11T19:31:51.568Z,3.13
2023-03-11T19:34:18.216Z,2.40
2023-03-11T19:36:46.643Z,4.05
2023-03-11T19:39:13.146Z,3.50
2023-03-11T19:41:39.596Z,2.78
2023-03-11T19:44:06.051Z,2.42
2023-03-11T19:46:34.706Z,4.68
2023-03-11T19:49:01.344Z,2.20
2023-03-11T19:51:32.984Z,2.78
2023-03-11T19:54:05.642Z,3.47
2023-03-11T19:56:32.146Z,2.70
2023-03-11T19:58:58.636Z,3.05
2023-03-11T20:01:28.152Z,3.83
2023-03-11T20:03:54.587Z,1.75
2023-03-11T20:06:22.732Z,3.58
2023-03-11T20:08:50.188Z,9.65
2023-03-11T20:11:17.105Z,6.68
2023-03-11T20:13:44.119Z,6.85
2023-03-11T20:16:18.530Z,3.25
2023-03-11T20:18:49.413Z,2.83
2023-03-11T20:21:16.299Z,6.28
2023-03-11T20:23:42.745Z,11.00
2023-03-11T20:26:14.976Z,17.85
2023-03-11T20:28:41.521Z,12.95
2023-03-11T20:31:16.957Z,27.92
2023-03-11T20:33:43.634Z,10.77
2023-03-11T20:36:13.478Z,11.45
2023-03-11T20:38:40.802Z,10.55
2023-03-11T20:41:09.592Z,15.73
2023-03-11T20:43:37.113Z,18.27
2023-03-11T20:46:05.081Z,19.05
2023-03-11T20:48:31.757Z,18.95
2023-03-11T20:51:02.653Z,22.25
2023-03-11T20:53:30.915Z,17.58
2023-03-11T20:55:58.954Z,23.38
2023-03-11T20:58:25.475Z,24.20
2023-03-11T21:00:52.478Z,31.13
2023-03-11T21:03:18.987Z,22.80
2023-03-11T21:05:45.608Z,20.15
2023-03-11T21:08:12.480Z,23.17
2023-03-11T21:10:39.262Z,20.02
2023-03-11T21:13:05.977Z,27.35
2023-03-11T21:15:32.423Z,23.00
2023-03-11T21:17:59.011Z,21.92
2023-03-11T21:20:25.545Z,24.08
2023-03-11T21:22:51.972Z,24.98
2023-03-11T21:25:19.111Z,28.55
2023-03-11T21:27:45.652Z,31.70
2023-03-11T21:30:12.719Z,33.10
2023-03-11T21:32:39.270Z,33.63
2023-03-11T21:35:06.363Z,33.60
2023-03-11T21:37:32.990Z,37.63
2023-03-11T21:39:59.525Z,31.38
2023-03-11T21:42:29.091Z,36.15
2023-03-11T21:44:55.634Z,35.88
2023-03-11T21:47:22.159Z,39.38
2023-03-11T21:49:48.757Z,37.10
2023-03-11T21:52:15.218Z,34.67
2023-03-11T21:54:41.657Z,34.33
2023-03-11T21:57:08.197Z,41.08
2023-03-11T21:59:34.747Z,35.65
2023-03-11T22:02:03.209Z,38.83
2023-03-11T22:04:31.248Z,39.53
2023-03-11T22:06:57.956Z,37.88
2023-03-11T22:09:25.790Z,42.03
2023-03-11T22:11:52.434Z,35.33
2023-03-11T22:14:19.049Z,38.08
2023-03-11T22:16:45.507Z,38.42
2023-03-11T22:19:12.056Z,49.90
2023-03-11T22:21:38.500Z,39.25
2023-03-11T22:24:05.314Z,44.65
2023-03-11T22:26:31.695Z,42.03
2023-03-11T22:28:58.105Z,39.85
2023-03-11T22:31:25.074Z,47.05
2023-03-11T22:33:51.745Z,43.35
2023-03-11T22:36:18.330Z,43.92
2023-03-11T22:38:44.965Z,43.25
2023-03-11T22:41:12.515Z,45.47
2023-03-11T22:43:39.512Z,42.55
2023-03-11T22:46:06.757Z,39.05
2023-03-11T22:48:33.790Z,45.28
2023-03-11T22:51:00.255Z,45.28
2023-03-11T22:53:26.740Z,44.90
2023-03-11T22:55:53.212Z,44.38
2023-03-11T22:58:19.894Z,45.05
2023-03-11T23:00:46.587Z,42.35
2023-03-11T23:03:13.575Z,45.90
2023-03-11T23:05:43.232Z,41.65
2023-03-11T23:08:11.933Z,45.55
2023-03-11T23:10:47.144Z,35.90
2023-03-11T23:13:14.521Z,38.88
2023-03-11T23:15:42.856Z,37.25
2023-03-11T23:18:10.549Z,36.35
2023-03-11T23:20:39.156Z,40.47
2023-03-11T23:23:06.045Z,36.58
2023-03-11T23:25:33.937Z,38.20
2023-03-11T23:28:02.181Z,45.58
2023-03-11T23:30:29.473Z,42.75
2023-03-11T23:32:57.237Z,47.70
2023-03-11T23:35:23.851Z,39.45
2023-03-11T23:37:51.069Z,39.38
2023-03-11T23:40:18.089Z,39.60
2023-03-11T23:42:44.527Z,37.53
2023-03-11T23:45:11.288Z,40.72
2023-03-11T23:47:37.724Z,40.13
2023-03-11T23:50:05.219Z,39.72
2023-03-11T23:52:31.690Z,37.65
2023-03-11T23:54:58.151Z,38.88
2023-03-11T23:57:24.545Z,31.20
2023-03-11T23:59:50.945Z,40.30
